createdAt,value
2019-03-19T00:00:35.504Z,3.23
2019-03-19T00:03:06.894Z,3.30
2019-03-19T00:05:38.166Z,3.30
2019-03-19T00:08:09.462Z,3.13
2019-03-19T00:10:40.736Z,3.30
2019-03-19T00:13:11.953Z,3.37
2019-03-19T00:15:43.238Z,2.87
2019-03-19T00:18:14.422Z,3.37
2019-03-19T00:20:45.669Z,3.17
2019-03-19T00:23:16.869Z,3.43
2019-03-19T00:25:48.144Z,3.53
2019-03-19T00:28:19.410Z,3.47
2019-03-19T00:30:50.692Z,3.13
2019-03-19T00:33:21.970Z,3.13
2019-03-19T00:35:53.222Z,3.87
2019-03-19T00:38:24.451Z,3.30
2019-03-19T00:40:55.943Z,2.93
2019-03-19T00:43:27.231Z,3.20
2019-03-19T00:45:58.472Z,3.20
2019-03-19T00:48:29.734Z,3.60
2019-03-19T00:51:01.032Z,3.57
2019-03-19T00:53:32.288Z,3.30
2019-03-19T00:56:03.498Z,3.27
2019-03-19T00:58:34.759Z,3.50
2019-03-19T01:01:05.981Z,3.57
2019-03-19T01:03:37.260Z,2.93
2019-03-19T01:06:08.524Z,3.23
2019-03-19T01:08:39.796Z,3.30
2019-03-19T01:11:11.145Z,3.70
2019-03-19T01:13:42.399Z,4.03
2019-03-19T01:16:13.701Z,3.50
2019-03-19T01:18:47.920Z,3.40
2019-03-19T01:21:19.304Z,3.50
2019-03-19T01:23:50.609Z,3.50
2019-03-19T01:26:21.967Z,3.57
2019-03-19T01:28:53.254Z,3.60
2019-03-19T01:31:24.508Z,3.77
2019-03-19T01:33:55.774Z,3.77
2019-03-19T01:36:27.113Z,3.43
2019-03-19T01:38:58.395Z,3.50
2019-03-19T01:41:29.712Z,4.03
2019-03-19T01:44:01.002Z,3.60
2019-03-19T01:46:32.288Z,3.73
2019-03-19T01:49:03.603Z,3.20
2019-03-19T01:51:34.918Z,4.20
2019-03-19T01:54:06.245Z,4.17
2019-03-19T01:56:37.557Z,3.97
2019-03-19T01:59:08.870Z,3.37
2019-03-19T02:01:40.258Z,3.97
2019-03-19T02:04:11.535Z,3.90
2019-03-19T02:06:42.872Z,4.20
2019-03-19T02:09:14.138Z,4.10
2019-03-19T02:11:45.442Z,4.20
2019-03-19T02:14:16.729Z,4.50
2019-03-19T02:16:48.029Z,3.80
2019-03-19T02:19:19.324Z,4.50
2019-03-19T02:21:50.694Z,4.30
2019-03-19T02:24:21.962Z,4.30
2019-03-19T02:26:53.285Z,4.27
2019-03-19T02:29:24.616Z,4.23
2019-03-19T02:31:55.944Z,4.53
2019-03-19T02:34:27.266Z,4.70
2019-03-19T02:36:58.547Z,4.60
2019-03-19T02:39:29.882Z,4.50
2019-03-19T02:42:01.154Z,4.47
2019-03-19T02:44:32.478Z,4.93
2019-03-19T02:47:03.804Z,4.93
2019-03-19T02:49:35.135Z,4.27
2019-03-19T02:52:06.479Z,4.20
2019-03-19T02:54:37.756Z,5.63
2019-03-19T02:57:09.063Z,4.77
2019-03-19T02:59:40.368Z,4.40
2019-03-19T03:02:11.676Z,4.60
2019-03-19T03:04:43.022Z,5.27
2019-03-19T03:07:14.273Z,5.20
2019-03-19T03:09:45.572Z,5.17
2019-03-19T03:12:16.913Z,5.13
2019-03-19T03:14:48.218Z,5.07
2019-03-19T03:17:19.522Z,4.80
2019-03-19T03:19:50.882Z,5.00
2019-03-19T03:22:22.190Z,5.00
2019-03-19T03:24:53.556Z,5.27
2019-03-19T03:27:24.891Z,4.97
2019-03-19T03:29:56.146Z,5.53
2019-03-19T03:32:27.447Z,5.67
2019-03-19T03:34:58.752Z,6.60
2019-03-19T03:37:30.021Z,7.07
2019-03-19T03:40:01.367Z,5.70
2019-03-19T03:42:32.805Z,6.07
2019-03-19T03:45:04.286Z,6.17
2019-03-19T03:47:35.693Z,5.93
2019-03-19T03:50:07.583Z,6.37
2019-03-19T03:52:38.879Z,6.87
2019-03-19T03:55:10.612Z,7.07
2019-03-19T03:57:41.885Z,7.43
2019-03-19T04:00:14.538Z,6.50
2019-03-19T04:02:45.812Z,6.90
2019-03-19T04:05:17.184Z,7.20
2019-03-19T04:07:48.491Z,7.90
2019-03-19T04:10:19.916Z,7.40
2019-03-19T04:12:51.233Z,6.40
2019-03-19T04:15:22.536Z,6.23
2019-03-19T04:17:53.836Z,6.57
2019-03-19T04:20:25.148Z,6.90
2019-03-19T04:22:56.475Z,7.20
2019-03-19T04:25:27.754Z,7.03
2019-03-19T04:27:59.028Z,7.27
2019-03-19T04:30:30.321Z,7.53
2019-03-19T04:33:01.638Z,7.00
2019-03-19T04:35:32.925Z,7.80
2019-03-19T04:38:04.228Z,8.27
2019-03-19T04:40:35.540Z,7.90
2019-03-19T04:43:06.848Z,8.10
2019-03-19T04:45:38.149Z,7.57
2019-03-19T04:48:09.431Z,8.67
2019-03-19T04:50:40.712Z,8.20
2019-03-19T04:53:12.052Z,8.27
2019-03-19T04:55:43.380Z,7.80
2019-03-19T04:58:14.679Z,9.00
2019-03-19T05:00:45.968Z,8.77
2019-03-19T05:03:17.348Z,9.10
2019-03-19T05:05:48.663Z,9.43
2019-03-19T05:08:19.922Z,7.57
2019-03-19T05:10:51.202Z,9.10
2019-03-19T05:13:22.518Z,7.80
2019-03-19T05:15:53.966Z,9.00
2019-03-19T05:18:25.294Z,8.87
2019-03-19T05:20:56.561Z,9.37
2019-03-19T05:23:27.883Z,9.67
2019-03-19T05:25:59.179Z,8.77
2019-03-19T05:28:30.433Z,9.63
2019-03-19T05:31:01.787Z,10.17
2019-03-19T05:33:33.078Z,9.43
2019-03-19T05:36:04.360Z,9.03
2019-03-19T05:38:35.654Z,9.50
2019-03-19T05:41:06.993Z,9.00
2019-03-19T05:43:38.313Z,8.77
2019-03-19T05:46:09.573Z,9.10
2019-03-19T05:48:40.873Z,8.60
2019-03-19T05:51:12.174Z,9.87
2019-03-19T05:53:43.471Z,8.77
2019-03-19T05:56:14.792Z,9.03
2019-03-19T05:58:46.193Z,9.10
2019-03-19T06:01:17.514Z,9.13
2019-03-19T06:03:48.827Z,9.43
2019-03-19T06:06:20.154Z,9.17
2019-03-19T06:08:51.407Z,8.90
2019-03-19T06:11:22.709Z,9.27
2019-03-19T06:13:54.000Z,9.53
2019-03-19T06:16:25.313Z,9.93
2019-03-19T06:18:56.642Z,10.07
2019-03-19T06:21:27.918Z,9.70
2019-03-19T06:23:59.212Z,10.43
2019-03-19T06:26:30.502Z,8.70
2019-03-19T06:29:01.880Z,8.37
2019-03-19T06:31:33.177Z,9.13
2019-03-19T06:34:04.606Z,8.60
2019-03-19T06:36:35.891Z,9.70
2019-03-19T06:39:09.365Z,8.87
2019-03-19T06:41:40.656Z,8.40
2019-03-19T06:44:11.953Z,11.93
2019-03-19T06:46:43.251Z,7.97
2019-03-19T06:49:14.541Z,7.80
2019-03-19T06:51:45.860Z,7.10
2019-03-19T06:54:17.147Z,8.37
2019-03-19T06:56:48.436Z,8.00
2019-03-19T06:59:19.873Z,8.03
2019-03-19T07:01:51.185Z,7.73
2019-03-19T07:04:22.485Z,7.60
2019-03-19T07:06:53.824Z,6.57
2019-03-19T07:09:25.108Z,6.70
2019-03-19T07:11:56.362Z,6.37
2019-03-19T07:14:27.674Z,6.80
2019-03-19T07:16:58.967Z,7.00
2019-03-19T07:19:30.235Z,6.47
2019-03-19T07:22:01.532Z,6.40
2019-03-19T07:24:32.886Z,6.33
2019-03-19T07:27:04.165Z,5.63
2019-03-19T07:29:35.453Z,6.63
2019-03-19T07:32:06.809Z,6.23
2019-03-19T07:34:38.097Z,6.20
2019-03-19T07:37:09.388Z,5.97
2019-03-19T07:39:40.711Z,6.40
2019-03-19T07:42:12.014Z,6.20
2019-03-19T07:44:43.325Z,5.87
2019-03-19T07:47:14.607Z,5.80
2019-03-19T07:49:45.953Z,6.93
2019-03-19T07:52:17.230Z,5.57
2019-03-19T07:54:48.549Z,6.00
2019-03-19T07:57:19.876Z,6.13
2019-03-19T07:59:51.128Z,6.57
2019-03-19T08:02:22.438Z,6.90
2019-03-19T08:04:53.743Z,6.40
2019-03-19T08:07:25.049Z,6.30
2019-03-19T08:09:56.368Z,6.20
2019-03-19T08:12:27.658Z,5.53
2019-03-19T08:14:58.955Z,5.50
2019-03-19T08:17:30.236Z,5.37
2019-03-19T08:20:01.561Z,5.50
2019-03-19T08:22:32.880Z,5.53
2019-03-19T08:25:04.340Z,5.53
2019-03-19T08:27:35.613Z,5.63
2019-03-19T08:30:09.071Z,5.00
2019-03-19T08:32:40.332Z,5.20
2019-03-19T08:35:11.758Z,4.20
2019-03-19T08:37:43.011Z,3.20
2019-03-19T08:40:14.853Z,3.97
2019-03-19T08:42:46.147Z,4.90
2019-03-19T08:45:17.572Z,3.77
2019-03-19T08:47:48.864Z,4.63
2019-03-19T08:50:20.166Z,3.93
2019-03-19T08:52:51.471Z,4.13
2019-03-19T08:55:22.883Z,2.97
2019-03-19T08:57:54.157Z,3.60
2019-03-19T09:00:25.467Z,3.87
2019-03-19T09:02:56.726Z,3.20
2019-03-19T09:05:27.993Z,3.70
2019-03-19T09:07:59.293Z,3.83
2019-03-19T09:10:30.557Z,4.07
2019-03-19T09:13:01.825Z,4.43
2019-03-19T09:15:33.119Z,4.00
2019-03-19T09:18:04.379Z,4.07
2019-03-19T09:20:35.670Z,3.90
2019-03-19T09:23:06.994Z,3.80
2019-03-19T09:25:38.283Z,3.57
2019-03-19T09:28:09.526Z,3.50
2019-03-19T09:30:40.885Z,3.30
2019-03-19T09:33:12.127Z,3.17
2019-03-19T09:35:43.454Z,3.70
2019-03-19T09:38:14.763Z,3.27
2019-03-19T09:40:47.978Z,3.00
2019-03-19T09:43:19.041Z,3.33
2019-03-19T09:45:50.334Z,3.20
2019-03-19T09:48:21.632Z,3.60
2019-03-19T09:50:52.924Z,4.10
2019-03-19T09:53:24.234Z,4.20
2019-03-19T09:55:55.551Z,4.37
2019-03-19T09:58:26.850Z,3.67
2019-03-19T10:00:58.162Z,4.00
2019-03-19T10:03:29.445Z,4.10
2019-03-19T10:06:12.629Z,3.50
2019-03-19T10:08:33.751Z,3.27
2019-03-19T10:11:05.063Z,3.23
2019-03-19T10:13:36.363Z,2.70
2019-03-19T10:16:07.861Z,3.10
2019-03-19T10:18:39.103Z,3.03
2019-03-19T10:21:10.386Z,2.80
2019-03-19T10:23:41.683Z,2.70
2019-03-19T10:26:12.943Z,2.50
2019-03-19T10:28:44.227Z,2.40
2019-03-19T10:31:15.727Z,3.00
2019-03-19T10:33:47.023Z,2.47
2019-03-19T10:36:18.291Z,3.50
2019-03-19T10:38:49.570Z,2.60
2019-03-19T10:41:20.819Z,4.93
2019-03-19T10:43:52.108Z,3.30
2019-03-19T10:46:23.400Z,3.50
2019-03-19T10:48:54.684Z,2.80
2019-03-19T10:51:25.967Z,3.83
2019-03-19T10:53:57.244Z,3.87
2019-03-19T10:56:28.591Z,3.40
2019-03-19T10:58:59.881Z,3.33
2019-03-19T11:01:31.204Z,3.50
2019-03-19T11:04:02.498Z,3.20
2019-03-19T11:06:33.752Z,3.50
2019-03-19T11:09:07.190Z,3.30
2019-03-19T11:11:38.506Z,3.10
2019-03-19T11:14:09.761Z,2.80
2019-03-19T11:16:41.053Z,2.83
2019-03-19T11:19:12.301Z,2.83
2019-03-19T11:21:43.608Z,3.10
2019-03-19T11:24:14.902Z,2.90
2019-03-19T11:26:46.202Z,3.40
2019-03-19T11:29:17.467Z,3.43
2019-03-19T11:31:48.788Z,3.37
2019-03-19T11:34:20.072Z,3.30
2019-03-19T11:36:57.678Z,3.70
2019-03-19T11:39:24.426Z,3.67
2019-03-19T11:41:55.686Z,3.80
2019-03-19T11:44:27.010Z,4.10
2019-03-19T11:46:58.274Z,3.77
2019-03-19T11:49:29.512Z,4.10
2019-03-19T11:52:00.796Z,4.17
2019-03-19T11:54:32.110Z,4.03
2019-03-19T11:57:03.371Z,3.50
2019-03-19T11:59:34.665Z,3.90
2019-03-19T12:02:05.970Z,3.63
2019-03-19T12:04:37.245Z,3.30
2019-03-19T12:07:08.610Z,3.17
2019-03-19T12:09:40.210Z,3.23
2019-03-19T12:12:11.786Z,3.57
2019-03-19T12:14:43.137Z,3.20
2019-03-19T12:17:14.441Z,3.23
2019-03-19T12:19:45.696Z,3.23
2019-03-19T12:22:16.996Z,3.37
2019-03-19T12:24:48.315Z,2.90
2019-03-19T12:27:19.615Z,3.10
2019-03-19T12:29:50.896Z,2.80
2019-03-19T12:32:22.191Z,3.50
2019-03-19T12:34:53.555Z,3.23
2019-03-19T12:37:24.858Z,3.10
2019-03-19T12:39:56.122Z,3.37
2019-03-19T12:42:27.468Z,3.43
2019-03-19T12:44:58.759Z,3.43
2019-03-19T12:47:30.054Z,3.03
2019-03-19T12:50:01.330Z,3.00
2019-03-19T12:52:32.612Z,3.20
2019-03-19T12:55:03.917Z,3.23
2019-03-19T12:57:35.226Z,3.13
2019-03-19T13:00:10.997Z,3.00
2019-03-19T13:02:42.318Z,3.13
2019-03-19T13:05:13.646Z,2.83
2019-03-19T13:07:44.920Z,3.30
2019-03-19T13:10:17.941Z,3.30
2019-03-19T13:12:49.230Z,3.10
2019-03-19T13:15:20.517Z,3.00
2019-03-19T13:17:51.851Z,3.13
2019-03-19T13:20:23.163Z,2.90
2019-03-19T13:22:54.455Z,3.23
2019-03-19T13:25:25.917Z,3.13
2019-03-19T13:27:57.348Z,3.13
2019-03-19T13:30:28.689Z,3.00
2019-03-19T13:32:59.997Z,2.70
2019-03-19T13:35:31.324Z,2.90
2019-03-19T13:38:02.646Z,2.93
2019-03-19T13:40:33.923Z,2.83
2019-03-19T13:43:05.249Z,2.87
2019-03-19T13:45:36.577Z,2.93
2019-03-19T13:48:07.880Z,3.00
2019-03-19T13:50:39.150Z,2.90
2019-03-19T13:53:10.455Z,3.07
2019-03-19T13:55:41.800Z,3.27
2019-03-19T13:58:13.042Z,2.97
2019-03-19T14:00:55.139Z,3.20
2019-03-19T14:03:17.338Z,2.83
2019-03-19T14:05:48.601Z,3.03
2019-03-19T14:08:19.866Z,3.13
2019-03-19T14:10:51.138Z,2.60
2019-03-19T14:13:22.463Z,3.40
2019-03-19T14:15:53.727Z,2.80
2019-03-19T14:18:24.996Z,3.13
2019-03-19T14:20:56.359Z,2.93
2019-03-19T14:23:27.671Z,3.20
2019-03-19T14:25:59.003Z,2.93
2019-03-19T14:28:30.298Z,3.23
2019-03-19T14:31:08.452Z,2.40
2019-03-19T14:33:34.602Z,2.53
2019-03-19T14:36:05.953Z,2.47
2019-03-19T14:38:46.711Z,2.17
2019-03-19T14:41:10.240Z,2.43
2019-03-19T14:43:41.539Z,2.30
2019-03-19T14:46:12.857Z,2.37
2019-03-19T14:48:44.185Z,2.80
2019-03-19T14:51:15.492Z,2.30
2019-03-19T14:53:46.869Z,2.50
2019-03-19T14:56:18.168Z,2.50
2019-03-19T14:58:49.464Z,2.20
2019-03-19T15:01:20.780Z,2.27
2019-03-19T15:03:52.098Z,2.20
2019-03-19T15:06:23.389Z,2.00
2019-03-19T15:08:54.659Z,2.50
2019-03-19T15:11:25.982Z,2.57
2019-03-19T15:13:57.322Z,2.53
2019-03-19T15:16:28.592Z,2.70
2019-03-19T15:18:59.894Z,2.77
2019-03-19T15:21:31.195Z,2.53
2019-03-19T15:24:02.500Z,2.17
2019-03-19T15:26:33.909Z,2.53
2019-03-19T15:29:05.220Z,2.20
2019-03-19T15:31:36.498Z,2.10
2019-03-19T15:34:10.668Z,2.10
2019-03-19T15:36:41.957Z,2.50
2019-03-19T15:39:13.259Z,2.20
2019-03-19T15:41:44.531Z,2.40
2019-03-19T15:44:15.847Z,2.10
2019-03-19T15:46:47.135Z,2.20
2019-03-19T15:49:18.500Z,2.07
2019-03-19T15:51:49.873Z,2.20
2019-03-19T15:54:21.250Z,2.70
2019-03-19T15:56:52.528Z,2.10
2019-03-19T15:59:23.892Z,2.40
2019-03-19T16:01:55.184Z,2.40
2019-03-19T16:04:26.447Z,2.63
2019-03-19T16:06:57.778Z,2.87
2019-03-19T16:09:29.079Z,2.80
2019-03-19T16:12:00.379Z,2.40
2019-03-19T16:14:31.735Z,2.83
2019-03-19T16:17:03.074Z,2.57
2019-03-19T16:19:34.365Z,2.70
2019-03-19T16:22:05.792Z,2.43
2019-03-19T16:24:37.102Z,2.50
2019-03-19T16:27:08.352Z,2.70
2019-03-19T16:29:39.689Z,2.63
2019-03-19T16:32:10.968Z,2.67
2019-03-19T16:34:42.256Z,3.10
2019-03-19T16:37:13.579Z,2.77
2019-03-19T16:39:44.905Z,3.23
2019-03-19T16:42:16.293Z,2.67
2019-03-19T16:44:47.551Z,2.70
2019-03-19T16:47:18.810Z,2.90
2019-03-19T16:49:50.154Z,2.83
2019-03-19T16:52:21.395Z,3.70
2019-03-19T16:54:52.674Z,2.63
2019-03-19T16:57:24.019Z,3.30
2019-03-19T16:59:55.280Z,3.00
2019-03-19T17:02:26.593Z,3.20
2019-03-19T17:04:57.947Z,3.10
2019-03-19T17:07:29.246Z,3.43
2019-03-19T17:10:00.565Z,3.03
2019-03-19T17:12:31.851Z,3.93
2019-03-19T17:15:03.164Z,3.70
2019-03-19T17:17:34.466Z,3.43
2019-03-19T17:20:06.782Z,3.23
2019-03-19T17:22:38.084Z,3.30
2019-03-19T17:25:11.360Z,3.30
2019-03-19T17:27:44.163Z,3.10
2019-03-19T17:30:21.291Z,3.60
2019-03-19T17:32:52.603Z,3.50
2019-03-19T17:35:25.047Z,4.00
2019-03-19T17:37:56.367Z,3.87
2019-03-19T17:40:27.725Z,3.50
2019-03-19T17:42:59.060Z,3.53
2019-03-19T17:45:30.397Z,3.50
2019-03-19T17:48:01.774Z,4.07
2019-03-19T17:50:33.185Z,3.90
2019-03-19T17:53:04.574Z,3.77
2019-03-19T17:55:36.011Z,4.10
2019-03-19T17:58:07.344Z,4.40
2019-03-19T18:00:40.352Z,4.10
2019-03-19T18:03:11.761Z,4.70
2019-03-19T18:05:43.030Z,4.30
2019-03-19T18:08:14.323Z,3.77
2019-03-19T18:10:45.646Z,3.90
2019-03-19T18:13:16.995Z,3.97
2019-03-19T18:15:48.289Z,4.67
2019-03-19T18:18:19.624Z,3.60
2019-03-19T18:20:50.920Z,3.83
2019-03-19T18:23:22.262Z,4.07
2019-03-19T18:25:53.616Z,4.07
2019-03-19T18:28:24.891Z,3.90
2019-03-19T18:30:56.209Z,3.97
2019-03-19T18:33:27.871Z,3.83
2019-03-19T18:35:59.285Z,4.20
2019-03-19T18:38:30.626Z,3.97
2019-03-19T18:41:01.943Z,4.17
2019-03-19T18:43:33.274Z,5.10
2019-03-19T18:46:04.622Z,4.63
2019-03-19T18:48:35.972Z,4.77
2019-03-19T18:51:07.305Z,4.60
2019-03-19T18:53:38.630Z,4.30
2019-03-19T18:56:09.923Z,4.50
2019-03-19T18:58:41.279Z,4.83
2019-03-19T19:01:12.558Z,4.17
2019-03-19T19:03:43.870Z,4.63
2019-03-19T19:06:15.212Z,4.60
2019-03-19T19:08:46.577Z,4.50
2019-03-19T19:11:18.254Z,5.07
2019-03-19T19:13:49.546Z,4.57
2019-03-19T19:16:20.890Z,4.33
2019-03-19T19:18:52.230Z,5.00
2019-03-19T19:21:25.008Z,4.97
2019-03-19T19:23:56.316Z,5.00
2019-03-19T19:26:27.672Z,4.80
2019-03-19T19:28:58.993Z,4.53
2019-03-19T19:31:30.285Z,5.17
2019-03-19T19:34:01.553Z,5.87
2019-03-19T19:36:32.862Z,5.00
2019-03-19T19:39:05.057Z,5.43
2019-03-19T19:41:36.413Z,5.10
2019-03-19T19:44:07.763Z,5.30
2019-03-19T19:46:39.063Z,5.83
2019-03-19T19:49:10.385Z,5.60
2019-03-19T19:51:41.656Z,5.30
2019-03-19T19:54:13.015Z,5.70
2019-03-19T19:56:44.302Z,5.77
2019-03-19T19:59:15.649Z,5.10
2019-03-19T20:01:46.952Z,5.30
2019-03-19T20:04:18.304Z,5.70
2019-03-19T20:06:49.634Z,5.40
2019-03-19T20:09:20.957Z,5.33
2019-03-19T20:11:52.372Z,5.70
2019-03-19T20:14:23.666Z,5.60
2019-03-19T20:16:54.969Z,5.20
2019-03-19T20:19:26.230Z,5.53
2019-03-19T20:21:57.571Z,5.03
2019-03-19T20:24:28.915Z,5.57
2019-03-19T20:27:00.167Z,5.60
2019-03-19T20:29:31.512Z,5.17
2019-03-19T20:32:02.834Z,5.17
2019-03-19T20:34:34.113Z,5.80
2019-03-19T20:37:05.426Z,5.13
2019-03-19T20:39:36.735Z,5.63
2019-03-19T20:42:08.042Z,5.70
2019-03-19T20:44:39.413Z,6.00
2019-03-19T20:47:10.712Z,6.07
2019-03-19T20:49:47.599Z,6.50
2019-03-19T20:52:15.050Z,6.43
2019-03-19T20:54:46.355Z,7.20
2019-03-19T20:57:17.678Z,6.47
2019-03-19T20:59:49.032Z,6.70
2019-03-19T21:02:20.401Z,6.30
2019-03-19T21:04:51.810Z,6.40
2019-03-19T21:07:23.095Z,6.63
2019-03-19T21:09:54.529Z,6.20
2019-03-19T21:12:25.836Z,6.70
2019-03-19T21:14:57.203Z,5.97
2019-03-19T21:17:28.502Z,6.40
2019-03-19T21:19:59.786Z,6.30
2019-03-19T21:22:31.114Z,6.23
2019-03-19T21:25:02.358Z,6.53
2019-03-19T21:27:33.670Z,6.47
2019-03-19T21:30:06.200Z,5.73
2019-03-19T21:32:37.537Z,6.03
2019-03-19T21:35:08.936Z,5.83
2019-03-19T21:37:40.349Z,6.50
2019-03-19T21:40:13.269Z,6.20
2019-03-19T21:42:44.617Z,6.10
2019-03-19T21:45:15.957Z,7.00
2019-03-19T21:47:47.229Z,6.50
2019-03-19T21:50:19.464Z,6.27
2019-03-19T21:52:50.775Z,6.33
2019-03-19T21:55:25.073Z,6.53
2019-03-19T21:57:56.355Z,6.73
2019-03-19T22:00:27.703Z,6.13
2019-03-19T22:02:58.983Z,6.70
2019-03-19T22:05:30.274Z,7.43
2019-03-19T22:08:01.573Z,6.63
2019-03-19T22:10:32.877Z,7.10
2019-03-19T22:13:04.186Z,6.73
2019-03-19T22:15:35.479Z,6.90
2019-03-19T22:18:06.798Z,6.20
2019-03-19T22:20:38.118Z,6.30
2019-03-19T22:23:09.390Z,6.60
2019-03-19T22:25:40.697Z,6.37
2019-03-19T22:28:11.931Z,6.50
2019-03-19T22:30:43.260Z,6.87
2019-03-19T22:33:14.558Z,6.00
2019-03-19T22:35:45.897Z,6.03
2019-03-19T22:38:17.207Z,6.03
2019-03-19T22:40:48.512Z,6.50
2019-03-19T22:43:19.832Z,6.17
2019-03-19T22:45:51.081Z,6.17
2019-03-19T22:48:22.578Z,6.20
2019-03-19T22:50:55.730Z,6.60
2019-03-19T22:53:27.046Z,6.77
2019-03-19T22:55:58.944Z,6.73
2019-03-19T22:58:36.304Z,6.67
2019-03-19T23:01:07.623Z,6.13
2019-03-19T23:03:38.907Z,6.10
2019-03-19T23:06:10.161Z,7.03
2019-03-19T23:08:41.401Z,6.30
2019-03-19T23:11:12.717Z,6.73
2019-03-19T23:13:44.025Z,6.37
2019-03-19T23:16:15.281Z,6.13
2019-03-19T23:18:46.570Z,6.00
2019-03-19T23:21:17.924Z,6.30
2019-03-19T23:23:49.272Z,6.67
2019-03-19T23:26:20.539Z,6.37
2019-03-19T23:28:51.803Z,6.27
2019-03-19T23:31:23.083Z,6.13
2019-03-19T23:33:54.337Z,6.80
2019-03-19T23:36:25.575Z,6.07
2019-03-19T23:38:56.844Z,6.67
2019-03-19T23:41:28.142Z,5.90
2019-03-19T23:43:59.416Z,6.53
2019-03-19T23:46:30.682Z,6.33
2019-03-19T23:49:01.950Z,5.90
2019-03-19T23:51:33.227Z,6.17
2019-03-19T23:54:04.472Z,6.63
2019-03-19T23:56:35.722Z,6.77
2019-03-19T23:59:07.096Z,6.50
